Time;durP1;ratioP1;P1;durP2;ratioP2;P2;SDS_P1;SDS_P2;PMS_P1;PMS_P2;Temp;Humidity;BMP_temperature;BMP_pressure;BME280_temperature;BME280_humidity;BME280_pressure;Samples;Min_cycle;Max_cycle;Signal;HPM_P1;HPM_P2
2021/01/20 00:00:04;;;;;;;;;;;5.90;99.90;;;;;;12421909;28;20385;-43
2021/01/20 00:06:06;;;;;;;;;;;5.80;99.90;;;;;;12412479;28;19926;-42
2021/01/20 00:12:07;;;;;;;;;;;5.80;99.90;;;;;;12401234;28;19929;-43
2021/01/20 00:18:09;;;;;;;;;;;5.70;99.90;;;;;;12408211;28;19929;-43
2021/01/20 00:24:11;;;;;;;;;;;5.70;99.90;;;;;;12373194;28;19968;-42
2021/01/20 00:30:12;;;;;;;;;;;5.70;99.90;;;;;;12407469;28;20476;-43
2021/01/20 00:36:13;;;;;;;;;;;5.70;99.90;;;;;;12386595;28;20416;-43
2021/01/20 00:42:14;;;;;;;;;;;5.70;99.90;;;;;;12427166;28;20019;-43
2021/01/20 00:48:16;;;;;;;;;;;5.70;99.90;;;;;;12409418;28;19939;-43
2021/01/20 00:54:17;;;;;;;;;;;5.70;99.90;;;;;;12419439;28;20409;-42
2021/01/20 01:00:19;;;;;;;;;;;5.70;99.90;;;;;;12430106;28;19983;-43
2021/01/20 01:06:20;;;;;;;;;;;5.70;99.90;;;;;;12409846;28;20433;-43
2021/01/20 01:12:21;;;;;;;;;;;5.70;99.90;;;;;;12407608;28;20392;-43
2021/01/20 01:18:22;;;;;;;;;;;5.70;99.90;;;;;;12422217;28;19940;-43
2021/01/20 01:24:24;;;;;;;;;;;5.70;99.90;;;;;;12412664;28;19941;-42
2021/01/20 01:30:25;;;;;;;;;;;5.70;99.90;;;;;;12420827;28;20382;-42
2021/01/20 01:36:26;;;;;;;;;;;5.70;99.90;;;;;;12393097;28;20016;-43
2021/01/20 01:42:28;;;;;;;;;;;5.60;99.90;;;;;;12430399;28;20029;-43
2021/01/20 01:48:30;;;;;;;;;;;5.60;99.90;;;;;;12403249;28;19937;-43
2021/01/20 01:54:32;;;;;;;;;;;5.60;99.90;;;;;;12426536;28;19940;-42
2021/01/20 02:00:33;;;;;;;;;;;5.50;99.90;;;;;;12430508;28;20009;-44
2021/01/20 02:06:35;;;;;;;;;;;5.40;99.90;;;;;;12412934;28;19933;-43
2021/01/20 02:12:44;;;;;;;;;;;5.40;99.90;;;;;;12428694;28;19971;-43
2021/01/20 02:18:49;;;;;;;;;;;5.40;99.90;;;;;;12416030;28;19930;-42
2021/01/20 02:25:00;;;;;;;;;;;5.30;99.90;;;;;;12363154;28;19933;-43
2021/01/20 02:31:02;;;;;;;;;;;5.20;99.90;;;;;;12385499;28;19964;-42
2021/01/20 02:37:04;;;;;;;;;;;5.20;99.90;;;;;;12392639;28;19925;-42
2021/01/20 02:43:05;;;;;;;;;;;5.20;99.90;;;;;;12392953;28;19985;-42
2021/01/20 02:49:07;;;;;;;;;;;5.20;99.90;;;;;;12366674;28;20310;-41
2021/01/20 02:55:10;;;;;;;;;;;5.30;99.90;;;;;;12386440;28;19929;-42
2021/01/20 03:01:12;;;;;;;;;;;5.30;99.90;;;;;;12363789;28;19937;-42
2021/01/20 03:07:14;;;;;;;;;;;5.30;99.90;;;;;;12384220;28;20421;-43
2021/01/20 03:13:15;;;;;;;;;;;5.30;99.90;;;;;;12364528;28;20330;-42
2021/01/20 03:19:17;;;;;;;;;;;5.20;99.90;;;;;;12387745;28;20436;-42
2021/01/20 03:25:18;;;;;;;;;;;5.20;99.90;;;;;;12402493;28;20020;-42
2021/01/20 03:31:19;;;;;;;;;;;5.30;99.90;;;;;;12375713;28;19933;-44
2021/01/20 03:37:21;;;;;;;;;;;5.30;99.90;;;;;;12390699;28;20064;-42
2021/01/20 03:43:22;;;;;;;;;;;5.30;99.90;;;;;;12409027;28;19936;-42
2021/01/20 03:49:23;;;;;;;;;;;5.30;99.90;;;;;;12398715;28;20383;-43
2021/01/20 03:55:24;;;;;;;;;;;5.40;99.90;;;;;;12388063;28;20032;-43
2021/01/20 04:01:26;;;;;;;;;;;5.40;99.90;;;;;;12380702;28;20366;-42
2021/01/20 04:07:28;;;;;;;;;;;5.50;99.90;;;;;;12306249;28;19926;-42
2021/01/20 04:13:30;;;;;;;;;;;5.60;99.90;;;;;;12337063;28;20358;-45
2021/01/20 04:19:31;;;;;;;;;;;5.50;99.90;;;;;;12334903;28;20396;-42
2021/01/20 04:25:32;;;;;;;;;;;5.50;99.90;;;;;;12372346;28;19930;-43
2021/01/20 04:31:33;;;;;;;;;;;5.40;99.90;;;;;;12405930;28;20016;-42
2021/01/20 04:37:35;;;;;;;;;;;5.40;99.90;;;;;;12398772;28;19932;-42
2021/01/20 04:43:36;;;;;;;;;;;5.40;99.90;;;;;;12401908;28;20012;-42
2021/01/20 04:49:37;;;;;;;;;;;5.40;99.90;;;;;;12412083;28;19964;-42
2021/01/20 04:55:41;;;;;;;;;;;5.50;99.90;;;;;;12427966;28;20023;-42
2021/01/20 05:01:42;;;;;;;;;;;5.60;99.90;;;;;;12410163;28;19925;-43
2021/01/20 05:07:44;;;;;;;;;;;5.60;99.90;;;;;;12419334;28;19936;-43
2021/01/20 05:13:45;;;;;;;;;;;5.60;99.90;;;;;;12398659;28;19932;-42
2021/01/20 05:19:46;;;;;;;;;;;5.70;99.90;;;;;;12386411;28;19936;-42
2021/01/20 05:25:51;;;;;;;;;;;5.70;99.90;;;;;;12386816;28;20016;-43
2021/01/20 05:31:52;;;;;;;;;;;5.80;99.90;;;;;;12399245;28;20456;-42
2021/01/20 05:37:53;;;;;;;;;;;5.80;99.90;;;;;;12404929;28;20464;-42
2021/01/20 05:44:15;;;;;;;;;;;5.90;99.90;;;;;;12408225;28;20281;-42
2021/01/20 05:50:16;;;;;;;;;;;5.90;99.90;;;;;;12400409;28;20411;-43
2021/01/20 05:56:24;;;;;;;;;;;5.90;99.90;;;;;;12415079;28;20011;-43
2021/01/20 06:02:25;;;;;;;;;;;6.00;99.90;;;;;;12389078;28;20032;-42
2021/01/20 06:08:27;;;;;;;;;;;5.90;99.90;;;;;;12400701;28;19929;-42
2021/01/20 06:14:28;;;;;;;;;;;6.00;99.90;;;;;;12420315;28;20478;-42
2021/01/20 06:20:29;;;;;;;;;;;6.00;99.90;;;;;;12408097;28;19985;-42
2021/01/20 06:26:31;;;;;;;;;;;5.90;99.90;;;;;;12416814;28;20329;-42
2021/01/20 06:32:33;;;;;;;;;;;5.90;99.90;;;;;;12366437;28;20035;-43
2021/01/20 06:38:36;;;;;;;;;;;6.00;99.90;;;;;;12400275;28;20293;-41
2021/01/20 06:44:37;;;;;;;;;;;6.00;99.90;;;;;;12384631;28;19955;-42
2021/01/20 06:50:57;;;;;;;;;;;6.10;99.90;;;;;;12383652;28;19933;-42
2021/01/20 06:56:58;;;;;;;;;;;6.20;99.90;;;;;;12386516;28;19988;-42
2021/01/20 07:03:01;;;;;;;;;;;6.10;99.90;;;;;;12385385;28;20027;-42
2021/01/20 07:09:03;;;;;;;;;;;6.20;99.90;;;;;;12404213;28;20044;-42
2021/01/20 07:15:05;;;;;;;;;;;6.20;99.90;;;;;;12387921;28;20812;-41
2021/01/20 07:21:06;;;;;;;;;;;6.20;99.90;;;;;;12403064;28;20055;-43
2021/01/20 07:27:12;;;;;;;;;;;6.30;99.90;;;;;;12401134;28;20418;-44
2021/01/20 07:33:15;;;;;;;;;;;6.60;99.90;;;;;;12402808;28;20441;-41
2021/01/20 07:39:20;;;;;;;;;;;6.70;99.90;;;;;;12411347;28;19999;-41
2021/01/20 07:45:37;;;;;;;;;;;6.90;99.90;;;;;;12427640;28;20385;-41
2021/01/20 07:51:39;;;;;;;;;;;6.90;99.90;;;;;;12396545;28;19975;-43
2021/01/20 07:57:40;;;;;;;;;;;7.00;99.90;;;;;;12400518;28;20052;-44
2021/01/20 08:03:41;;;;;;;;;;;7.30;99.90;;;;;;12378798;28;20436;-42
2021/01/20 08:09:46;;;;;;;;;;;7.20;99.90;;;;;;12414221;28;20015;-41
2021/01/20 08:15:47;;;;;;;;;;;7.30;99.90;;;;;;12396059;28;20016;-41
2021/01/20 08:21:49;;;;;;;;;;;7.40;99.90;;;;;;12397169;28;20052;-42
2021/01/20 08:27:50;;;;;;;;;;;7.40;99.90;;;;;;12365684;28;19973;-41
2021/01/20 08:34:11;;;;;;;;;;;7.40;99.90;;;;;;12412804;28;20405;-41
2021/01/20 08:40:13;;;;;;;;;;;7.60;99.90;;;;;;12367759;28;19970;-42
2021/01/20 08:46:25;;;;;;;;;;;7.60;99.90;;;;;;12393985;28;19929;-41
2021/01/20 08:52:39;;;;;;;;;;;7.60;99.90;;;;;;12397669;28;19929;-40
2021/01/20 08:58:51;;;;;;;;;;;7.70;99.90;;;;;;12385222;28;20023;-41
2021/01/20 09:04:52;;;;;;;;;;;7.70;99.90;;;;;;12417348;28;19979;-40
2021/01/20 09:10:55;;;;;;;;;;;7.80;99.90;;;;;;12395427;28;19932;-41
2021/01/20 09:16:56;;;;;;;;;;;7.80;99.90;;;;;;12411361;28;20544;-41
2021/01/20 09:22:57;;;;;;;;;;;7.90;99.90;;;;;;12390125;28;19960;-44
2021/01/20 09:28:58;;;;;;;;;;;8.00;99.90;;;;;;12393561;28;20012;-42
2021/01/20 09:35:00;;;;;;;;;;;8.10;99.90;;;;;;12413323;28;19933;-42
2021/01/20 09:41:02;;;;;;;;;;;8.30;99.90;;;;;;12408823;28;20782;-42
2021/01/20 09:47:03;;;;;;;;;;;8.30;99.90;;;;;;12413232;28;19926;-43
2021/01/20 09:53:05;;;;;;;;;;;8.30;99.90;;;;;;12384129;28;20349;-42
2021/01/20 09:59:06;;;;;;;;;;;8.40;99.90;;;;;;12402948;28;19925;-42
2021/01/20 10:05:08;;;;;;;;;;;8.40;99.90;;;;;;12408041;28;20019;-43
2021/01/20 10:11:09;;;;;;;;;;;8.40;99.90;;;;;;12429558;28;19985;-42
2021/01/20 10:17:11;;;;;;;;;;;8.60;99.90;;;;;;12397770;28;20750;-42
2021/01/20 10:23:12;;;;;;;;;;;8.60;99.90;;;;;;12378940;28;19930;-42
2021/01/20 10:29:13;;;;;;;;;;;8.40;99.90;;;;;;12399503;28;19976;-42
2021/01/20 10:35:19;;;;;;;;;;;8.50;99.90;;;;;;12399615;28;20404;-42
2021/01/20 10:41:21;;;;;;;;;;;8.50;99.90;;;;;;12428826;28;19929;-42
2021/01/20 10:47:22;;;;;;;;;;;8.40;99.90;;;;;;12393268;28;20305;-44
2021/01/20 10:53:24;;;;;;;;;;;8.50;99.90;;;;;;12396083;28;19926;-42
2021/01/20 10:59:26;;;;;;;;;;;8.60;99.90;;;;;;12385293;28;20024;-42
2021/01/20 11:05:27;;;;;;;;;;;8.70;99.90;;;;;;12404610;28;20405;-43
2021/01/20 11:11:28;;;;;;;;;;;8.80;99.90;;;;;;12392868;28;20352;-42
2021/01/20 11:17:30;;;;;;;;;;;9.20;99.90;;;;;;12402787;28;20019;-42
2021/01/20 11:23:38;;;;;;;;;;;9.30;99.90;;;;;;12405160;28;19928;-43
2021/01/20 11:29:39;;;;;;;;;;;9.40;99.90;;;;;;12395108;28;20357;-42
2021/01/20 11:35:40;;;;;;;;;;;9.50;99.90;;;;;;12409939;28;19968;-43
2021/01/20 11:41:41;;;;;;;;;;;9.60;99.90;;;;;;12401287;28;19929;-42
2021/01/20 11:47:42;;;;;;;;;;;9.70;99.90;;;;;;12404114;28;20317;-43
2021/01/20 11:53:44;;;;;;;;;;;9.80;99.90;;;;;;12424878;28;20029;-43
2021/01/20 11:59:45;;;;;;;;;;;9.90;99.90;;;;;;12392053;28;20012;-44
2021/01/20 12:05:49;;;;;;;;;;;9.90;99.90;;;;;;12416891;28;19930;-42
2021/01/20 12:11:51;;;;;;;;;;;10.00;99.90;;;;;;12404717;28;20297;-42
2021/01/20 12:17:52;;;;;;;;;;;10.20;99.90;;;;;;12403527;28;19930;-42
2021/01/20 12:23:54;;;;;;;;;;;10.20;99.90;;;;;;12408047;28;19951;-42
2021/01/20 12:29:55;;;;;;;;;;;10.10;99.90;;;;;;12384658;28;19933;-42
2021/01/20 12:35:56;;;;;;;;;;;10.30;99.90;;;;;;12422900;28;19936;-44
2021/01/20 12:41:57;;;;;;;;;;;10.50;99.90;;;;;;12428474;28;20717;-42
2021/01/20 12:48:02;;;;;;;;;;;10.50;99.90;;;;;;12384292;28;19972;-42
2021/01/20 12:54:04;;;;;;;;;;;10.50;99.90;;;;;;12435804;28;20305;-45
2021/01/20 13:00:06;;;;;;;;;;;10.40;99.90;;;;;;12402695;28;19951;-43
2021/01/20 13:06:07;;;;;;;;;;;10.30;99.90;;;;;;12408936;28;20023;-42
2021/01/20 13:12:08;;;;;;;;;;;10.20;99.90;;;;;;12411145;28;19933;-42
2021/01/20 13:18:10;;;;;;;;;;;10.40;99.90;;;;;;12409931;28;19941;-42
2021/01/20 13:24:11;;;;;;;;;;;10.50;99.90;;;;;;12411017;28;19929;-42
2021/01/20 13:30:13;;;;;;;;;;;10.30;99.90;;;;;;12380186;28;20275;-43
2021/01/20 13:36:14;;;;;;;;;;;10.20;99.90;;;;;;12405558;28;19930;-42
2021/01/20 13:42:16;;;;;;;;;;;10.20;99.90;;;;;;12417316;28;20015;-42
2021/01/20 13:48:18;;;;;;;;;;;10.20;99.90;;;;;;12400532;28;20479;-42
2021/01/20 13:54:19;;;;;;;;;;;10.10;99.90;;;;;;12410356;28;19925;-44
2021/01/20 14:00:21;;;;;;;;;;;10.10;99.90;;;;;;12413176;28;19972;-42
2021/01/20 14:06:22;;;;;;;;;;;10.10;99.90;;;;;;12393286;28;19945;-42
2021/01/20 14:12:23;;;;;;;;;;;10.10;99.90;;;;;;12419432;28;19932;-42
2021/01/20 14:18:24;;;;;;;;;;;9.90;99.90;;;;;;12406108;28;19947;-43
2021/01/20 14:24:26;;;;;;;;;;;9.80;99.90;;;;;;12411356;28;19936;-43
2021/01/20 14:30:27;;;;;;;;;;;9.70;99.90;;;;;;12403787;28;19972;-43
2021/01/20 14:36:30;;;;;;;;;;;9.60;99.90;;;;;;12397763;28;19983;-43
2021/01/20 14:42:31;;;;;;;;;;;9.60;99.90;;;;;;12406335;28;20092;-42
2021/01/20 14:48:33;;;;;;;;;;;9.50;99.90;;;;;;12423671;28;19930;-43
2021/01/20 14:54:35;;;;;;;;;;;9.60;99.90;;;;;;12407639;28;20223;-42
2021/01/20 15:00:36;;;;;;;;;;;9.40;99.90;;;;;;12391545;28;19925;-42
2021/01/20 15:06:37;;;;;;;;;;;9.30;99.90;;;;;;12393426;28;20060;-43
2021/01/20 15:12:39;;;;;;;;;;;9.30;99.90;;;;;;12391285;28;20027;-42
2021/01/20 15:18:40;;;;;;;;;;;9.50;99.90;;;;;;12406530;28;20373;-45
2021/01/20 15:24:42;;;;;;;;;;;9.50;99.90;;;;;;12392919;28;20910;-43
2021/01/20 15:30:44;;;;;;;;;;;9.50;99.90;;;;;;12392662;28;20023;-42
2021/01/20 15:36:46;;;;;;;;;;;9.50;99.90;;;;;;12406238;28;19928;-43
2021/01/20 15:42:47;;;;;;;;;;;9.50;99.90;;;;;;12412304;28;20294;-42
2021/01/20 15:48:49;;;;;;;;;;;9.30;99.90;;;;;;12389988;28;21149;-43
2021/01/20 15:54:50;;;;;;;;;;;9.20;99.90;;;;;;12396189;28;20036;-42
2021/01/20 16:00:52;;;;;;;;;;;9.10;99.90;;;;;;12375051;28;19982;-43
2021/01/20 16:06:53;;;;;;;;;;;9.10;99.90;;;;;;12424077;28;20398;-43
2021/01/20 16:12:58;;;;;;;;;;;9.10;99.90;;;;;;12407798;23;20040;-83
2021/01/20 16:19:02;;;;;;;;;;;9.10;99.90;;;;;;12440835;28;20417;-83
2021/01/20 16:25:04;;;;;;;;;;;8.90;99.90;;;;;;12394559;28;19960;-83
2021/01/20 16:31:05;;;;;;;;;;;8.80;99.90;;;;;;12400729;28;19932;-82
2021/01/20 16:37:07;;;;;;;;;;;8.60;99.90;;;;;;12419263;28;20430;-83
2021/01/20 16:43:08;;;;;;;;;;;8.50;99.90;;;;;;12401206;28;19925;-83
2021/01/20 16:49:09;;;;;;;;;;;8.40;99.90;;;;;;12404387;28;19952;-83
2021/01/20 16:55:11;;;;;;;;;;;8.40;99.90;;;;;;12410180;28;20024;-82
2021/01/20 17:01:12;;;;;;;;;;;8.20;99.90;;;;;;12408146;28;19964;-82
2021/01/20 17:07:13;;;;;;;;;;;8.30;99.90;;;;;;12415785;28;20379;-82
2021/01/20 17:13:14;;;;;;;;;;;8.20;99.90;;;;;;12402539;28;19976;-83
2021/01/20 17:19:16;;;;;;;;;;;8.10;99.90;;;;;;12421183;28;19932;-82
2021/01/20 17:25:18;;;;;;;;;;;8.20;99.90;;;;;;12413858;28;19925;-82
2021/01/20 17:31:19;;;;;;;;;;;8.10;99.90;;;;;;12402306;28;20086;-82
2021/01/20 17:37:20;;;;;;;;;;;7.90;99.90;;;;;;12403649;28;19929;-82
2021/01/20 17:43:21;;;;;;;;;;;7.90;99.90;;;;;;12411415;28;20763;-82
2021/01/20 17:49:23;;;;;;;;;;;7.90;99.90;;;;;;12395323;28;19993;-82
2021/01/20 17:55:25;;;;;;;;;;;7.80;99.90;;;;;;12422674;28;20385;-82
2021/01/20 18:01:26;;;;;;;;;;;7.60;99.90;;;;;;12397861;28;19965;-82
2021/01/20 18:11:50;;;;;;;;;;;7.50;99.90;;;;;;12430643;28;19929;-36
2021/01/20 18:17:51;;;;;;;;;;;7.30;99.90;;;;;;12441314;28;19961;-36
2021/01/20 18:23:53;;;;;;;;;;;7.30;99.90;;;;;;12436168;28;20292;-36
2021/01/20 18:29:54;;;;;;;;;;;7.20;99.90;;;;;;12430506;28;20067;-36
2021/01/20 18:35:56;;;;;;;;;;;7.10;99.90;;;;;;12438441;28;20024;-36
2021/01/20 18:41:57;;;;;;;;;;;7.20;99.90;;;;;;12429635;28;20013;-36
2021/01/20 18:47:58;;;;;;;;;;;7.30;99.90;;;;;;12395446;28;20329;-36
2021/01/20 18:54:00;;;;;;;;;;;7.40;99.90;;;;;;12388521;28;20435;-36
2021/01/20 19:00:01;;;;;;;;;;;7.40;99.90;;;;;;12363099;28;20028;-36
2021/01/20 19:06:02;;;;;;;;;;;7.40;99.90;;;;;;12444979;28;19964;-37
2021/01/20 19:12:04;;;;;;;;;;;7.40;99.90;;;;;;12429409;28;20036;-36
2021/01/20 19:18:13;;;;;;;;;;;7.40;99.90;;;;;;12439005;28;19937;-36
2021/01/20 19:24:14;;;;;;;;;;;7.40;99.90;;;;;;12366780;28;20025;-37
2021/01/20 19:30:16;;;;;;;;;;;7.50;99.90;;;;;;12361434;28;19991;-36
2021/01/20 19:36:18;;;;;;;;;;;7.50;99.90;;;;;;12355340;28;19929;-36
2021/01/20 19:42:19;;;;;;;;;;;7.40;99.90;;;;;;12352221;28;19934;-36
2021/01/20 19:48:20;;;;;;;;;;;7.30;99.90;;;;;;12361511;28;19925;-38
2021/01/20 19:54:22;;;;;;;;;;;7.30;99.90;;;;;;12385049;28;19973;-36
2021/01/20 20:00:24;;;;;;;;;;;7.30;99.90;;;;;;12388110;28;20432;-38
2021/01/20 20:06:25;;;;;;;;;;;7.10;99.90;;;;;;12423052;28;20016;-36
2021/01/20 20:12:26;;;;;;;;;;;7.10;99.90;;;;;;12417116;28;20849;-36
2021/01/20 20:18:28;;;;;;;;;;;7.20;99.90;;;;;;12398475;28;19936;-37
2021/01/20 20:24:30;;;;;;;;;;;7.40;99.90;;;;;;12391396;28;20027;-39
2021/01/20 20:30:31;;;;;;;;;;;7.40;99.90;;;;;;12392640;28;20016;-36
2021/01/20 20:36:32;;;;;;;;;;;7.60;99.90;;;;;;12403859;28;19988;-36
2021/01/20 20:42:33;;;;;;;;;;;7.60;99.90;;;;;;12385259;28;19969;-35
2021/01/20 20:48:35;;;;;;;;;;;7.70;99.90;;;;;;12366016;28;20012;-36
2021/01/20 20:54:36;;;;;;;;;;;7.80;99.90;;;;;;12336776;28;20328;-36
2021/01/20 21:00:37;;;;;;;;;;;7.80;99.90;;;;;;12355717;28;20385;-36
2021/01/20 21:06:38;;;;;;;;;;;7.50;99.90;;;;;;12415548;28;20028;-36
2021/01/20 21:12:41;;;;;;;;;;;7.70;99.90;;;;;;12389896;28;20262;-36
2021/01/20 21:18:42;;;;;;;;;;;7.70;99.90;;;;;;12351136;28;20431;-36
2021/01/20 21:24:43;;;;;;;;;;;7.70;99.90;;;;;;12331037;28;19925;-36
2021/01/20 21:30:45;;;;;;;;;;;7.70;99.90;;;;;;12348645;28;19925;-36
2021/01/20 21:36:47;;;;;;;;;;;7.70;99.90;;;;;;12388792;28;19992;-36
2021/01/20 21:42:48;;;;;;;;;;;7.60;99.90;;;;;;12387091;28;19929;-36
2021/01/20 21:48:50;;;;;;;;;;;7.60;99.90;;;;;;12324548;28;20606;-37
2021/01/20 21:54:51;;;;;;;;;;;7.80;99.90;;;;;;12326146;28;19926;-36
2021/01/20 22:00:52;;;;;;;;;;;7.70;99.90;;;;;;12345542;28;20024;-36
2021/01/20 22:06:54;;;;;;;;;;;7.80;99.90;;;;;;12410753;28;19929;-36
2021/01/20 22:12:55;;;;;;;;;;;7.70;99.90;;;;;;12404268;28;19972;-36
2021/01/20 22:18:56;;;;;;;;;;;7.80;99.90;;;;;;12393285;28;20432;-36
2021/01/20 22:24:57;;;;;;;;;;;7.80;99.90;;;;;;12343142;28;20301;-36
2021/01/20 22:31:00;;;;;;;;;;;7.80;99.90;;;;;;12351770;28;19930;-36
2021/01/20 22:37:02;;;;;;;;;;;7.80;99.90;;;;;;12332832;28;19980;-36
2021/01/20 22:43:04;;;;;;;;;;;7.80;99.90;;;;;;12329412;28;20493;-36
2021/01/20 22:49:05;;;;;;;;;;;7.80;99.90;;;;;;12347941;28;20021;-36
2021/01/20 22:55:07;;;;;;;;;;;8.00;99.90;;;;;;12363147;28;19929;-36
2021/01/20 23:01:08;;;;;;;;;;;8.00;99.90;;;;;;12397851;28;19998;-36
2021/01/20 23:07:10;;;;;;;;;;;8.20;99.90;;;;;;12384985;28;19929;-36
2021/01/20 23:13:12;;;;;;;;;;;8.00;99.90;;;;;;12409541;28;19957;-36
2021/01/20 23:19:14;;;;;;;;;;;7.90;99.90;;;;;;12393231;28;19929;-36
2021/01/20 23:25:15;;;;;;;;;;;7.90;99.90;;;;;;12397817;28;20020;-37
2021/01/20 23:31:17;;;;;;;;;;;7.90;99.90;;;;;;12395878;28;20020;-36
2021/01/20 23:37:18;;;;;;;;;;;7.80;99.90;;;;;;12331328;28;19934;-36
2021/01/20 23:43:20;;;;;;;;;;;7.90;99.90;;;;;;12373411;28;20657;-36
2021/01/20 23:49:21;;;;;;;;;;;7.80;99.90;;;;;;12350573;28;19930;-36
2021/01/20 23:55:22;;;;;;;;;;;7.80;99.90;;;;;;12348469;28;19980;-36
